createdAt,value
2023-06-30T00:00:36.640Z,1.80
2023-06-30T00:01:36.659Z,2.00
2023-06-30T00:02:36.648Z,2.10
2023-06-30T00:03:36.757Z,2.00
2023-06-30T00:04:36.609Z,1.90
2023-06-30T00:05:36.559Z,2.10
2023-06-30T00:06:36.565Z,2.10
2023-06-30T00:07:36.611Z,2.00
2023-06-30T00:08:36.538Z,2.60
2023-06-30T00:09:36.520Z,2.30
2023-06-30T00:10:36.499Z,2.50
2023-06-30T00:11:36.495Z,2.30
2023-06-30T00:12:36.488Z,2.40
2023-06-30T00:13:36.468Z,2.30
2023-06-30T00:14:36.449Z,2.20
2023-06-30T00:15:36.478Z,2.40
2023-06-30T00:16:36.469Z,2.20
2023-06-30T00:17:36.466Z,2.40
2023-06-30T00:18:36.410Z,2.00
2023-06-30T00:19:36.401Z,2.40
2023-06-30T00:20:36.385Z,2.50
2023-06-30T00:21:36.378Z,2.80
2023-06-30T00:22:36.371Z,2.20
2023-06-30T00:23:36.384Z,2.40
2023-06-30T00:24:36.349Z,2.40
2023-06-30T00:25:36.333Z,2.10
2023-06-30T00:26:36.322Z,2.50
2023-06-30T00:27:36.322Z,2.50
2023-06-30T00:28:36.321Z,2.20
2023-06-30T00:29:36.329Z,2.70
2023-06-30T00:30:36.270Z,2.80
2023-06-30T00:31:36.343Z,2.80
2023-06-30T00:32:36.275Z,2.70
2023-06-30T00:33:36.239Z,2.70
2023-06-30T00:34:36.226Z,2.40
2023-06-30T00:35:36.219Z,2.50
2023-06-30T00:36:36.215Z,2.50
2023-06-30T00:37:36.200Z,2.50
2023-06-30T00:38:36.225Z,2.70
2023-06-30T00:39:36.176Z,2.60
2023-06-30T00:40:36.169Z,2.80
2023-06-30T00:41:36.168Z,2.80
2023-06-30T00:42:36.135Z,2.70
2023-06-30T00:43:36.128Z,2.40
2023-06-30T00:44:36.116Z,2.60
2023-06-30T00:45:36.119Z,2.70
2023-06-30T00:46:36.122Z,2.70
2023-06-30T00:47:36.091Z,2.80
2023-06-30T00:48:36.067Z,2.80
2023-06-30T00:49:36.061Z,3.00
2023-06-30T00:50:36.056Z,3.10
2023-06-30T00:51:36.045Z,2.80
2023-06-30T00:52:36.022Z,3.30
2023-06-30T00:53:36.016Z,3.40
2023-06-30T00:54:36.010Z,3.00
2023-06-30T00:55:36.002Z,2.90
2023-06-30T00:56:36.016Z,3.40
2023-06-30T00:57:35.972Z,3.10
2023-06-30T00:58:35.962Z,3.30
2023-06-30T00:59:35.976Z,3.40
2023-06-30T01:00:35.963Z,3.40
2023-06-30T01:01:35.958Z,3.80
2023-06-30T01:02:35.935Z,3.80
2023-06-30T01:03:35.995Z,3.60
2023-06-30T01:04:35.931Z,3.60
2023-06-30T01:05:35.888Z,3.60
2023-06-30T01:06:35.865Z,3.70
2023-06-30T01:07:35.885Z,3.70
2023-06-30T01:08:35.868Z,4.10
2023-06-30T01:09:35.859Z,3.40
2023-06-30T01:10:35.822Z,3.60
2023-06-30T01:11:35.816Z,3.70
2023-06-30T01:12:35.812Z,3.80
2023-06-30T01:13:35.807Z,3.60
2023-06-30T01:14:35.784Z,3.70
2023-06-30T01:15:35.792Z,3.20
2023-06-30T01:16:35.783Z,3.50
2023-06-30T01:17:35.774Z,3.40
2023-06-30T01:18:35.755Z,3.30
2023-06-30T01:19:35.730Z,3.30
2023-06-30T01:20:35.716Z,2.80
2023-06-30T01:21:35.700Z,3.20
2023-06-30T01:22:35.704Z,3.10
2023-06-30T01:23:35.703Z,2.90
2023-06-30T01:24:35.685Z,2.90
2023-06-30T01:25:35.726Z,2.60
2023-06-30T01:26:35.708Z,2.60
2023-06-30T01:27:35.648Z,2.60
2023-06-30T01:28:35.661Z,2.50
2023-06-30T01:29:35.610Z,2.60
2023-06-30T01:30:35.630Z,2.50
2023-06-30T01:31:35.591Z,2.40
2023-06-30T01:32:35.611Z,2.40
2023-06-30T01:33:35.566Z,2.50
2023-06-30T01:34:35.578Z,2.20
2023-06-30T01:35:35.574Z,2.20
2023-06-30T01:36:35.541Z,2.40
2023-06-30T01:37:35.541Z,2.30
2023-06-30T01:38:35.521Z,2.20
2023-06-30T01:39:35.506Z,2.10
2023-06-30T01:40:35.493Z,2.00
2023-06-30T01:41:35.489Z,2.40
2023-06-30T01:42:35.481Z,2.20
2023-06-30T01:43:35.458Z,1.90
2023-06-30T01:44:35.469Z,1.90
2023-06-30T01:45:35.434Z,1.80
2023-06-30T01:46:35.469Z,1.80
2023-06-30T01:47:35.459Z,2.20
2023-06-30T01:48:35.402Z,2.10
2023-06-30T01:49:35.384Z,2.40
2023-06-30T01:50:35.383Z,2.40
2023-06-30T01:51:35.376Z,2.10
2023-06-30T01:52:35.420Z,2.20
2023-06-30T01:53:35.350Z,2.20
2023-06-30T01:54:35.338Z,2.50
2023-06-30T01:55:35.324Z,2.70
2023-06-30T01:56:35.324Z,2.80
2023-06-30T01:57:35.314Z,2.20
2023-06-30T01:58:35.294Z,2.50
2023-06-30T01:59:35.285Z,2.50
2023-06-30T02:00:35.282Z,2.70
2023-06-30T02:01:35.289Z,2.40
2023-06-30T02:02:35.326Z,2.60
2023-06-30T02:03:35.308Z,2.70
2023-06-30T02:04:35.223Z,2.60
2023-06-30T02:05:35.221Z,2.50
2023-06-30T02:06:35.236Z,2.90
2023-06-30T02:07:35.363Z,2.70
2023-06-30T02:08:35.182Z,2.80
2023-06-30T02:09:47.226Z,2.70
2023-06-30T02:10:35.197Z,2.60
2023-06-30T02:11:35.141Z,3.00
2023-06-30T02:12:35.138Z,3.30
2023-06-30T02:13:35.123Z,2.80
2023-06-30T02:14:35.122Z,3.20
2023-06-30T02:15:35.109Z,3.30
2023-06-30T02:16:35.109Z,3.50
2023-06-30T02:17:35.099Z,3.70
2023-06-30T02:18:35.084Z,3.40
2023-06-30T02:19:35.064Z,3.90
2023-06-30T02:20:35.045Z,3.50
2023-06-30T02:21:35.028Z,3.30
2023-06-30T02:22:35.031Z,3.30
2023-06-30T02:23:35.008Z,3.60
2023-06-30T02:24:35.037Z,3.40
2023-06-30T02:25:34.983Z,3.80
2023-06-30T02:26:34.994Z,3.80
2023-06-30T02:27:34.965Z,3.90
2023-06-30T02:28:34.979Z,4.10
2023-06-30T02:29:35.000Z,3.60
2023-06-30T02:30:34.944Z,4.00
2023-06-30T02:31:34.940Z,3.90
2023-06-30T02:32:34.966Z,4.20
2023-06-30T02:33:34.949Z,3.60
2023-06-30T02:34:34.887Z,3.80
2023-06-30T02:35:34.916Z,4.30
2023-06-30T02:36:34.869Z,4.00
2023-06-30T02:37:34.850Z,4.30
2023-06-30T02:38:34.893Z,3.70
2023-06-30T02:39:34.833Z,4.00
2023-06-30T02:40:34.824Z,3.80
2023-06-30T02:41:34.812Z,3.90
2023-06-30T02:42:34.846Z,4.50
2023-06-30T02:43:34.795Z,3.80
2023-06-30T02:44:34.776Z,4.30
2023-06-30T02:45:34.831Z,4.20
2023-06-30T02:46:34.797Z,4.30
2023-06-30T02:47:34.872Z,4.10
2023-06-30T02:48:34.744Z,4.30
2023-06-30T02:49:34.714Z,4.00
2023-06-30T02:50:34.719Z,4.40
2023-06-30T02:51:34.692Z,4.20
2023-06-30T02:52:34.700Z,4.10
2023-06-30T02:53:34.680Z,4.10
2023-06-30T02:54:34.675Z,4.20
2023-06-30T02:55:36.573Z,4.30
2023-06-30T02:56:34.641Z,4.40
2023-06-30T02:57:34.654Z,4.30
2023-06-30T02:58:34.664Z,4.20
2023-06-30T02:59:34.612Z,4.40
2023-06-30T03:00:34.593Z,4.10
2023-06-30T03:01:34.694Z,4.50
2023-06-30T03:02:34.815Z,4.10
2023-06-30T03:03:34.698Z,4.50
2023-06-30T03:04:34.550Z,4.20
2023-06-30T03:05:34.564Z,4.50
2023-06-30T03:06:34.545Z,4.40
2023-06-30T03:07:34.627Z,4.70
2023-06-30T03:08:34.508Z,4.40
2023-06-30T03:09:34.502Z,4.60
2023-06-30T03:10:34.480Z,4.50
2023-06-30T03:11:34.486Z,4.80
2023-06-30T03:12:34.459Z,4.50
2023-06-30T03:13:34.452Z,4.80
2023-06-30T03:14:34.439Z,4.50
2023-06-30T03:15:34.440Z,4.70
2023-06-30T03:16:34.453Z,4.80
2023-06-30T03:17:34.475Z,4.70
2023-06-30T03:18:34.398Z,4.30
2023-06-30T03:19:34.416Z,4.60
2023-06-30T03:20:34.378Z,5.20
2023-06-30T03:21:34.365Z,4.60
2023-06-30T03:22:34.344Z,4.50
2023-06-30T03:23:34.347Z,4.80
2023-06-30T03:24:34.326Z,4.90
2023-06-30T03:25:34.332Z,4.60
2023-06-30T03:26:34.307Z,4.20
2023-06-30T03:27:34.295Z,4.70
2023-06-30T03:28:34.281Z,4.30
2023-06-30T03:29:34.284Z,4.30
2023-06-30T03:30:34.331Z,4.60
2023-06-30T03:31:34.270Z,4.80
2023-06-30T03:32:34.256Z,4.70
2023-06-30T03:33:34.234Z,4.90
2023-06-30T03:34:34.241Z,4.60
2023-06-30T03:35:34.205Z,3.90
2023-06-30T03:36:34.191Z,4.40
2023-06-30T03:37:34.185Z,5.00
2023-06-30T03:38:34.165Z,5.00
2023-06-30T03:39:34.177Z,5.30
2023-06-30T03:40:34.179Z,5.10
2023-06-30T03:41:34.148Z,5.20
2023-06-30T03:42:34.149Z,5.10
2023-06-30T03:43:34.164Z,5.40
2023-06-30T03:44:34.131Z,5.40
2023-06-30T03:45:34.094Z,5.30
2023-06-30T03:46:34.127Z,5.00
2023-06-30T03:47:34.106Z,5.20
2023-06-30T03:48:34.068Z,5.30
2023-06-30T03:49:34.084Z,5.60
2023-06-30T03:50:34.039Z,5.50
2023-06-30T03:51:34.045Z,5.10
2023-06-30T03:52:34.029Z,5.30
2023-06-30T03:53:34.066Z,5.00
2023-06-30T03:54:34.001Z,5.40
2023-06-30T03:55:33.987Z,4.80
2023-06-30T03:56:33.974Z,5.50
2023-06-30T03:57:33.972Z,5.10
2023-06-30T03:58:33.962Z,5.80
2023-06-30T03:59:33.940Z,5.10
2023-06-30T04:00:33.928Z,4.80
2023-06-30T04:01:33.919Z,5.50
2023-06-30T04:02:33.941Z,5.70
2023-06-30T04:03:33.994Z,5.10
2023-06-30T04:04:33.997Z,5.10
2023-06-30T04:05:33.882Z,5.30
2023-06-30T04:06:33.858Z,4.80
2023-06-30T04:07:34.031Z,5.10
2023-06-30T04:08:33.998Z,5.00
2023-06-30T04:09:33.836Z,5.40
2023-06-30T04:10:33.828Z,5.10
2023-06-30T04:11:33.828Z,5.10
2023-06-30T04:12:33.813Z,4.90
2023-06-30T04:13:33.842Z,5.10
2023-06-30T04:14:33.773Z,4.70
2023-06-30T04:15:33.760Z,4.60
2023-06-30T04:16:33.796Z,5.20
2023-06-30T04:17:33.776Z,4.50
2023-06-30T04:18:33.746Z,4.30
2023-06-30T04:19:33.729Z,4.50
2023-06-30T04:20:33.737Z,4.70
2023-06-30T04:21:33.699Z,4.40
2023-06-30T04:22:33.693Z,4.70
2023-06-30T04:23:33.676Z,4.50
2023-06-30T04:24:33.720Z,4.20
2023-06-30T04:25:33.656Z,4.40
2023-06-30T04:26:33.648Z,4.20
2023-06-30T04:27:33.645Z,4.50
2023-06-30T04:28:33.616Z,4.10
2023-06-30T04:29:33.618Z,4.20
2023-06-30T04:30:33.628Z,3.90
2023-06-30T04:31:33.603Z,4.90
2023-06-30T04:32:33.605Z,4.40
2023-06-30T04:33:33.565Z,4.50
2023-06-30T04:34:33.551Z,4.30
2023-06-30T04:35:33.610Z,4.50
2023-06-30T04:36:33.556Z,4.50
2023-06-30T04:37:33.537Z,4.60
2023-06-30T04:38:33.586Z,4.30
2023-06-30T04:39:33.527Z,4.50
2023-06-30T04:40:33.486Z,4.40
2023-06-30T04:41:33.498Z,4.70
2023-06-30T04:42:33.460Z,4.50
2023-06-30T04:43:33.461Z,4.60
2023-06-30T04:44:33.442Z,4.70
2023-06-30T04:45:33.441Z,4.60
2023-06-30T04:46:33.495Z,4.40
2023-06-30T04:47:33.494Z,4.40
2023-06-30T04:48:33.401Z,4.50
2023-06-30T04:49:33.391Z,4.40
2023-06-30T04:50:33.379Z,4.50
2023-06-30T04:51:33.377Z,4.30
2023-06-30T04:52:33.361Z,4.10
2023-06-30T04:53:33.357Z,4.40
2023-06-30T04:54:33.329Z,4.80
2023-06-30T04:55:33.334Z,4.20
2023-06-30T04:56:33.323Z,4.40
2023-06-30T04:57:33.306Z,3.70
2023-06-30T04:58:33.300Z,4.20
2023-06-30T04:59:33.375Z,4.60
2023-06-30T05:00:33.442Z,3.90
2023-06-30T05:01:33.310Z,4.30
2023-06-30T05:02:33.284Z,4.30
2023-06-30T05:03:33.293Z,4.30
2023-06-30T05:04:33.246Z,4.10
2023-06-30T05:05:33.223Z,4.70
2023-06-30T05:06:33.198Z,4.50
2023-06-30T05:07:33.242Z,4.40
2023-06-30T05:08:33.174Z,5.10
2023-06-30T05:09:33.181Z,4.60
2023-06-30T05:10:33.162Z,4.60
2023-06-30T05:11:33.146Z,4.50
2023-06-30T05:12:33.137Z,4.90
2023-06-30T05:13:33.136Z,4.90
2023-06-30T05:14:33.242Z,4.90
2023-06-30T05:15:33.105Z,4.90
2023-06-30T05:16:34.865Z,4.90
2023-06-30T05:17:33.227Z,5.30
2023-06-30T05:18:33.084Z,5.20
2023-06-30T05:19:33.066Z,4.70
2023-06-30T05:20:33.041Z,5.10
2023-06-30T05:21:33.033Z,4.70
2023-06-30T05:22:33.021Z,5.20
2023-06-30T05:23:33.021Z,5.10
2023-06-30T05:24:33.006Z,5.20
2023-06-30T05:25:32.991Z,5.10
2023-06-30T05:26:32.974Z,5.50
2023-06-30T05:27:32.970Z,5.00
2023-06-30T05:28:32.965Z,4.90
2023-06-30T05:29:33.007Z,5.00
2023-06-30T05:30:32.943Z,5.70
2023-06-30T05:31:33.123Z,5.30
2023-06-30T05:32:32.979Z,4.90
2023-06-30T05:33:32.913Z,4.50
2023-06-30T05:34:32.884Z,4.60
2023-06-30T05:35:32.871Z,4.50
2023-06-30T05:36:34.957Z,5.20
2023-06-30T05:37:32.870Z,4.20
2023-06-30T05:38:32.856Z,4.40
2023-06-30T05:39:32.849Z,4.30
2023-06-30T05:40:32.825Z,5.00
2023-06-30T05:41:32.811Z,4.80
2023-06-30T05:42:32.818Z,4.50
2023-06-30T05:43:32.783Z,4.70
2023-06-30T05:44:32.888Z,4.10
2023-06-30T05:45:32.764Z,3.90
2023-06-30T05:46:32.799Z,4.20
2023-06-30T05:47:32.769Z,3.40
2023-06-30T05:48:32.733Z,3.80
2023-06-30T05:49:32.714Z,3.70
2023-06-30T05:50:32.712Z,3.60
2023-06-30T05:51:32.708Z,3.10
2023-06-30T05:52:32.696Z,3.40
2023-06-30T05:53:32.670Z,3.30
2023-06-30T05:54:32.663Z,3.50
2023-06-30T05:55:32.646Z,3.10
2023-06-30T05:56:32.672Z,2.90
2023-06-30T05:57:32.638Z,3.00
2023-06-30T05:58:32.620Z,3.40
2023-06-30T05:59:32.616Z,3.20
2023-06-30T06:00:32.612Z,3.30
2023-06-30T06:01:32.593Z,3.10
2023-06-30T06:02:32.650Z,3.00
2023-06-30T06:03:32.732Z,2.60
2023-06-30T06:04:32.693Z,2.60
2023-06-30T06:05:32.729Z,3.10
2023-06-30T06:06:32.544Z,3.00
2023-06-30T06:07:32.545Z,2.80
2023-06-30T06:08:32.498Z,3.10
2023-06-30T06:09:32.508Z,2.40
2023-06-30T06:10:32.537Z,3.00
2023-06-30T06:11:32.481Z,2.60
2023-06-30T06:12:32.461Z,2.70
2023-06-30T06:13:32.551Z,2.70
2023-06-30T06:14:32.438Z,2.80
2023-06-30T06:15:32.478Z,2.50
2023-06-30T06:16:32.461Z,2.40
2023-06-30T06:17:32.437Z,2.70
2023-06-30T06:18:32.393Z,2.80
2023-06-30T06:19:32.402Z,2.60
2023-06-30T06:20:32.377Z,2.50
2023-06-30T06:21:32.371Z,2.90
2023-06-30T06:22:32.370Z,2.70
2023-06-30T06:23:32.354Z,2.80
2023-06-30T06:24:32.335Z,2.30
2023-06-30T06:25:32.334Z,2.30
2023-06-30T06:26:32.305Z,2.50
2023-06-30T06:27:32.301Z,2.60
2023-06-30T06:28:32.285Z,2.50
2023-06-30T06:29:32.305Z,2.60
2023-06-30T06:30:32.304Z,2.40
2023-06-30T06:31:32.272Z,2.20
2023-06-30T06:32:32.317Z,2.10
2023-06-30T06:33:32.236Z,2.20
2023-06-30T06:34:32.220Z,2.30
2023-06-30T06:35:32.205Z,2.40
2023-06-30T06:36:32.198Z,2.20
2023-06-30T06:37:32.198Z,2.40
2023-06-30T06:38:32.192Z,2.00
2023-06-30T06:39:32.164Z,2.30
2023-06-30T06:40:32.148Z,2.50
2023-06-30T06:41:32.138Z,2.60
2023-06-30T06:42:32.138Z,2.20
2023-06-30T06:43:32.153Z,2.10
2023-06-30T06:44:32.103Z,2.10
2023-06-30T06:45:32.100Z,2.40
2023-06-30T06:46:32.129Z,2.50
2023-06-30T06:47:32.104Z,2.50
2023-06-30T06:48:32.110Z,2.20
2023-06-30T06:49:32.045Z,1.70
2023-06-30T06:50:32.066Z,2.00
2023-06-30T06:51:32.032Z,1.80
2023-06-30T06:52:32.023Z,1.80
2023-06-30T06:53:32.017Z,1.80
2023-06-30T06:54:31.989Z,1.70
2023-06-30T06:55:31.986Z,1.90
2023-06-30T06:56:31.976Z,1.70
2023-06-30T06:57:31.981Z,1.70
2023-06-30T06:58:31.959Z,1.40
2023-06-30T06:59:31.940Z,1.70
2023-06-30T07:00:31.921Z,1.50
2023-06-30T07:01:31.929Z,1.50
2023-06-30T07:02:32.036Z,1.70
2023-06-30T07:03:31.942Z,1.70
2023-06-30T07:04:31.879Z,1.70
2023-06-30T07:05:31.872Z,1.30
2023-06-30T07:06:31.865Z,1.40
2023-06-30T07:07:33.698Z,1.20
2023-06-30T07:08:31.832Z,1.40
2023-06-30T07:09:31.834Z,1.60
2023-06-30T07:10:31.808Z,1.30
2023-06-30T07:11:31.813Z,1.40
2023-06-30T07:12:31.802Z,1.40
2023-06-30T07:13:31.780Z,1.30
2023-06-30T07:14:31.772Z,1.50
2023-06-30T07:15:31.756Z,1.50
2023-06-30T07:16:31.784Z,1.80
2023-06-30T07:17:31.802Z,1.50
2023-06-30T07:18:31.828Z,1.30
2023-06-30T07:19:31.709Z,1.50
2023-06-30T07:20:31.733Z,1.50
2023-06-30T07:21:31.702Z,1.40
2023-06-30T07:22:31.674Z,1.10
2023-06-30T07:23:31.674Z,1.20
2023-06-30T07:24:42.025Z,1.60
2023-06-30T07:25:31.658Z,1.30
2023-06-30T07:26:31.638Z,1.50
2023-06-30T07:27:31.627Z,1.30
2023-06-30T07:28:31.606Z,1.60
2023-06-30T07:29:31.617Z,1.60
2023-06-30T07:30:31.597Z,1.70
2023-06-30T07:31:31.614Z,1.60
2023-06-30T07:32:31.598Z,1.70
2023-06-30T07:33:31.587Z,1.50
2023-06-30T07:34:31.555Z,1.80
2023-06-30T07:35:31.542Z,1.20
2023-06-30T07:36:31.515Z,1.60
2023-06-30T07:37:31.507Z,1.30
2023-06-30T07:38:31.516Z,1.50
2023-06-30T07:39:31.496Z,1.60
2023-06-30T07:40:41.683Z,1.40
2023-06-30T07:41:31.508Z,1.80
2023-06-30T07:42:31.449Z,1.40
2023-06-30T07:43:31.456Z,1.60
2023-06-30T07:44:31.436Z,1.50
2023-06-30T07:45:31.444Z,1.60
2023-06-30T07:46:31.449Z,1.70
2023-06-30T07:47:31.437Z,1.50
2023-06-30T07:48:31.469Z,1.50
2023-06-30T07:49:31.390Z,1.40
2023-06-30T07:50:31.361Z,1.50
2023-06-30T07:51:31.355Z,1.60
2023-06-30T07:52:31.336Z,1.30
2023-06-30T07:53:31.352Z,1.40
2023-06-30T07:54:31.325Z,1.20
2023-06-30T07:55:31.314Z,1.30
2023-06-30T07:56:31.293Z,1.00
2023-06-30T07:57:31.299Z,0.90
2023-06-30T07:58:31.293Z,1.30
2023-06-30T07:59:31.281Z,1.20
2023-06-30T08:00:31.245Z,1.40
2023-06-30T08:01:31.247Z,1.30
2023-06-30T08:02:31.355Z,1.30
2023-06-30T08:03:31.668Z,1.30
2023-06-30T08:04:31.346Z,1.40
2023-06-30T08:05:31.381Z,1.10
2023-06-30T08:06:31.200Z,1.20
2023-06-30T08:07:49.577Z,1.30
2023-06-30T08:08:31.175Z,1.30
2023-06-30T08:09:31.151Z,1.20
2023-06-30T08:10:31.149Z,1.20
2023-06-30T08:11:31.167Z,1.10
2023-06-30T08:12:31.128Z,1.10
2023-06-30T08:13:31.103Z,1.10
2023-06-30T08:14:31.092Z,1.00
2023-06-30T08:15:31.094Z,1.30
2023-06-30T08:16:31.098Z,1.30
2023-06-30T08:17:48.970Z,1.10
2023-06-30T08:18:34.521Z,1.10
2023-06-30T08:19:48.180Z,1.40
2023-06-30T08:20:31.125Z,1.20
2023-06-30T08:21:31.063Z,0.90
2023-06-30T08:22:31.013Z,1.40
2023-06-30T08:23:31.030Z,1.30
2023-06-30T08:24:30.978Z,1.10
2023-06-30T08:25:30.988Z,1.30
2023-06-30T08:26:30.969Z,1.20
2023-06-30T08:27:30.948Z,1.20
2023-06-30T08:28:30.944Z,1.20
2023-06-30T08:29:30.931Z,1.20
2023-06-30T08:30:30.915Z,1.40
2023-06-30T08:31:30.953Z,1.20
2023-06-30T08:32:30.902Z,1.10
2023-06-30T08:34:30.874Z,1.30
2023-06-30T08:35:30.877Z,1.20
2023-06-30T08:36:30.854Z,1.20
2023-06-30T08:37:30.838Z,1.20
2023-06-30T08:38:30.825Z,1.60
2023-06-30T08:39:30.820Z,1.60
2023-06-30T08:40:30.872Z,1.50
2023-06-30T08:41:30.792Z,1.20
2023-06-30T08:42:30.778Z,1.00
2023-06-30T08:43:30.777Z,1.30
2023-06-30T08:44:30.757Z,1.40
2023-06-30T08:45:30.767Z,1.30
2023-06-30T08:46:30.743Z,1.00
2023-06-30T08:47:30.810Z,1.10
2023-06-30T08:48:30.763Z,1.00
2023-06-30T08:49:30.704Z,1.40
2023-06-30T08:50:30.708Z,1.10
2023-06-30T08:51:30.685Z,1.00
2023-06-30T08:52:30.678Z,1.20
2023-06-30T08:53:30.728Z,1.50
2023-06-30T08:54:30.659Z,1.00
2023-06-30T08:55:30.664Z,1.70
2023-06-30T08:56:30.624Z,1.20
2023-06-30T08:57:31.569Z,1.30
2023-06-30T08:58:30.608Z,1.40
2023-06-30T08:59:30.607Z,1.30
2023-06-30T09:00:30.608Z,1.10
2023-06-30T09:01:30.660Z,1.30
2023-06-30T09:02:30.793Z,1.10
2023-06-30T09:03:30.590Z,1.20
2023-06-30T09:04:30.566Z,1.10
2023-06-30T09:05:30.525Z,1.20
2023-06-30T09:06:30.528Z,1.40
2023-06-30T09:07:30.544Z,1.10
2023-06-30T09:08:30.499Z,1.20
2023-06-30T09:09:30.615Z,1.30
2023-06-30T09:10:30.520Z,1.00
2023-06-30T09:11:30.456Z,1.30
2023-06-30T09:12:30.466Z,1.30
2023-06-30T09:13:30.452Z,1.10
2023-06-30T09:14:30.442Z,1.30
2023-06-30T09:15:30.555Z,1.30
2023-06-30T09:16:30.466Z,1.00
2023-06-30T09:17:30.447Z,1.10
2023-06-30T09:18:30.412Z,1.00
2023-06-30T09:19:30.443Z,1.20
2023-06-30T09:20:30.431Z,1.40
2023-06-30T09:21:30.444Z,1.60
2023-06-30T09:22:53.585Z,1.40
2023-06-30T09:23:30.445Z,1.30
2023-06-30T09:24:30.325Z,1.20
2023-06-30T09:25:30.327Z,1.50
2023-06-30T09:26:32.456Z,1.30
2023-06-30T09:27:30.310Z,1.20
2023-06-30T09:28:30.304Z,1.20
2023-06-30T09:29:30.260Z,1.20
2023-06-30T09:30:30.250Z,1.30
2023-06-30T09:31:30.289Z,1.20
2023-06-30T09:32:30.321Z,1.40
2023-06-30T09:33:30.216Z,1.40
2023-06-30T09:34:30.217Z,1.10
2023-06-30T09:35:30.219Z,1.10
2023-06-30T09:36:30.196Z,1.10
2023-06-30T09:37:30.181Z,1.10
2023-06-30T09:38:30.166Z,1.10
2023-06-30T09:39:30.161Z,1.20
2023-06-30T09:40:30.159Z,1.30
2023-06-30T09:41:30.142Z,1.40
2023-06-30T09:42:30.131Z,1.30
2023-06-30T09:43:30.112Z,1.00
2023-06-30T09:44:30.103Z,1.20
2023-06-30T09:45:30.081Z,1.40
2023-06-30T09:46:30.129Z,1.10
2023-06-30T09:47:30.108Z,1.30
2023-06-30T09:48:30.060Z,0.90
2023-06-30T09:49:30.074Z,1.30
2023-06-30T09:50:30.029Z,1.40
2023-06-30T09:51:30.034Z,1.10
2023-06-30T09:52:30.003Z,0.80
2023-06-30T09:53:29.997Z,1.20
2023-06-30T09:55:29.984Z,1.00
2023-06-30T09:56:29.971Z,1.20
2023-06-30T09:57:29.957Z,1.30
2023-06-30T09:58:29.944Z,1.10
2023-06-30T09:59:29.943Z,1.20
2023-06-30T10:00:55.041Z,0.90
2023-06-30T10:01:29.951Z,1.10
2023-06-30T10:02:29.964Z,1.30
2023-06-30T10:03:30.017Z,1.30
2023-06-30T10:04:29.882Z,1.20
2023-06-30T10:05:29.873Z,1.10
2023-06-30T10:06:29.859Z,1.00
2023-06-30T10:07:29.856Z,1.10
2023-06-30T10:08:29.824Z,1.20
2023-06-30T10:09:29.828Z,1.30
2023-06-30T10:10:29.918Z,1.40
2023-06-30T10:11:29.811Z,1.00
2023-06-30T10:12:29.803Z,0.90
2023-06-30T10:13:29.770Z,1.50
2023-06-30T10:14:29.780Z,1.20
2023-06-30T10:15:29.760Z,1.30
2023-06-30T10:16:29.737Z,1.20
2023-06-30T10:17:29.836Z,1.40
2023-06-30T10:18:29.768Z,1.20
2023-06-30T10:19:29.717Z,1.50
2023-06-30T10:20:42.557Z,1.10
2023-06-30T10:21:29.687Z,1.20
2023-06-30T10:22:29.664Z,1.20
2023-06-30T10:23:29.665Z,1.10
2023-06-30T10:24:29.663Z,1.20
2023-06-30T10:25:29.636Z,1.10
2023-06-30T10:26:29.631Z,1.20
2023-06-30T10:27:29.616Z,1.10
2023-06-30T10:28:29.614Z,1.10
2023-06-30T10:29:29.611Z,1.30
2023-06-30T10:30:29.588Z,1.40
2023-06-30T10:31:29.572Z,1.40
2023-06-30T10:32:29.631Z,1.30
2023-06-30T10:33:29.679Z,0.90
2023-06-30T10:34:29.542Z,1.00
2023-06-30T10:35:29.536Z,1.20
2023-06-30T10:36:29.510Z,1.00
2023-06-30T10:37:29.535Z,1.10
2023-06-30T10:38:29.506Z,1.10
2023-06-30T10:39:29.488Z,1.00
2023-06-30T10:40:29.479Z,1.10
2023-06-30T10:41:29.461Z,1.10
2023-06-30T10:42:29.446Z,0.90
2023-06-30T10:43:29.446Z,1.30
2023-06-30T10:44:29.439Z,1.30
2023-06-30T10:45:29.427Z,1.10
2023-06-30T10:46:29.422Z,1.10
2023-06-30T10:47:29.443Z,1.50
2023-06-30T10:48:29.394Z,1.10
2023-06-30T10:49:29.373Z,1.10
2023-06-30T10:50:29.364Z,1.10
2023-06-30T10:51:29.354Z,1.20
2023-06-30T10:52:29.363Z,1.20
2023-06-30T10:53:29.326Z,1.20
2023-06-30T10:54:29.375Z,1.10
2023-06-30T10:55:29.315Z,1.10
2023-06-30T10:56:29.293Z,1.00
2023-06-30T10:57:29.298Z,1.40
2023-06-30T10:58:29.271Z,1.30
2023-06-30T10:59:29.266Z,1.20
2023-06-30T11:00:29.256Z,1.20
2023-06-30T11:01:29.256Z,1.00
2023-06-30T11:02:29.326Z,1.00
2023-06-30T11:03:29.303Z,0.80
2023-06-30T11:04:29.430Z,1.00
2023-06-30T11:05:29.212Z,0.90
2023-06-30T11:06:29.244Z,1.00
2023-06-30T11:07:29.200Z,1.00
2023-06-30T11:08:29.171Z,1.10
2023-06-30T11:09:29.160Z,2.00
2023-06-30T11:10:29.140Z,1.00
2023-06-30T11:11:29.152Z,1.00
2023-06-30T11:12:29.116Z,1.00
2023-06-30T11:13:29.107Z,1.10
2023-06-30T11:14:29.123Z,1.10
2023-06-30T11:15:29.094Z,1.20
2023-06-30T11:16:29.081Z,1.00
2023-06-30T11:17:29.118Z,1.40
2023-06-30T11:18:29.102Z,1.20
2023-06-30T11:19:29.086Z,0.90
2023-06-30T11:20:29.046Z,0.90
2023-06-30T11:21:29.047Z,0.90
2023-06-30T11:22:29.002Z,0.90
2023-06-30T11:23:29.070Z,0.80
2023-06-30T11:24:28.979Z,1.10
2023-06-30T11:25:28.985Z,1.10
2023-06-30T11:26:28.957Z,0.90
2023-06-30T11:27:28.963Z,0.80
2023-06-30T11:28:28.944Z,1.00
2023-06-30T11:29:28.953Z,1.10
2023-06-30T11:30:28.926Z,1.10
2023-06-30T11:31:29.009Z,1.00
2023-06-30T11:32:28.979Z,1.10
2023-06-30T11:33:28.888Z,0.90
2023-06-30T11:34:28.881Z,1.10
2023-06-30T11:35:28.881Z,1.10
2023-06-30T11:36:28.847Z,0.80
2023-06-30T11:37:28.880Z,1.00
2023-06-30T11:38:28.896Z,1.00
2023-06-30T11:39:28.831Z,0.90
2023-06-30T11:40:28.805Z,1.10
2023-06-30T11:41:28.801Z,1.00
2023-06-30T11:42:28.787Z,0.90
2023-06-30T11:43:28.791Z,1.00
2023-06-30T11:44:28.779Z,0.80
2023-06-30T11:45:29.000Z,0.80
2023-06-30T11:46:28.773Z,0.90
2023-06-30T11:47:28.734Z,1.30
2023-06-30T11:48:28.732Z,0.80
2023-06-30T11:49:28.725Z,0.80
2023-06-30T11:50:28.704Z,0.90
2023-06-30T11:51:28.733Z,0.70
2023-06-30T11:52:28.677Z,1.00
2023-06-30T11:53:28.680Z,1.00
2023-06-30T11:54:28.666Z,1.00
2023-06-30T11:55:28.661Z,1.00
2023-06-30T11:56:28.628Z,1.00
2023-06-30T11:57:28.626Z,0.80
2023-06-30T11:58:28.623Z,0.90
2023-06-30T11:59:28.611Z,0.80
2023-06-30T12:00:28.590Z,1.00
2023-06-30T12:01:28.593Z,0.90
2023-06-30T12:02:28.593Z,0.90
2023-06-30T12:03:28.609Z,0.90
2023-06-30T12:04:28.590Z,0.80
2023-06-30T12:05:28.598Z,1.00
2023-06-30T12:06:28.535Z,0.80
2023-06-30T12:07:28.549Z,1.00
2023-06-30T12:08:28.511Z,0.90
2023-06-30T12:09:28.489Z,0.90
2023-06-30T12:10:28.486Z,1.00
2023-06-30T12:11:28.471Z,0.80
2023-06-30T12:12:28.469Z,0.90
2023-06-30T12:13:28.441Z,0.80
2023-06-30T12:14:28.766Z,1.00
2023-06-30T12:15:28.432Z,1.10
2023-06-30T12:16:28.466Z,1.10
2023-06-30T12:17:28.498Z,0.80
2023-06-30T12:18:28.395Z,1.00
2023-06-30T12:19:28.378Z,0.90
2023-06-30T12:20:28.380Z,1.00
2023-06-30T12:21:28.374Z,1.00
2023-06-30T12:22:29.276Z,0.90
2023-06-30T12:23:28.350Z,1.00
2023-06-30T12:24:28.332Z,0.90
2023-06-30T12:25:28.317Z,0.90
2023-06-30T12:26:28.320Z,0.90
2023-06-30T12:27:28.304Z,1.20
2023-06-30T12:28:28.278Z,0.90
2023-06-30T12:29:28.616Z,1.00
2023-06-30T12:30:28.276Z,1.00
2023-06-30T12:31:28.298Z,0.70
2023-06-30T12:32:28.272Z,0.90
2023-06-30T12:33:28.222Z,0.80
2023-06-30T12:34:28.217Z,0.90
2023-06-30T12:35:28.205Z,0.80
2023-06-30T12:36:28.196Z,0.80
2023-06-30T12:37:28.176Z,0.80
2023-06-30T12:38:28.177Z,0.90
2023-06-30T12:39:28.186Z,0.90
2023-06-30T12:40:28.828Z,1.30
2023-06-30T12:41:28.132Z,1.00
2023-06-30T12:42:28.129Z,0.80
2023-06-30T12:43:28.107Z,1.00
2023-06-30T12:44:28.109Z,1.00
2023-06-30T12:45:28.122Z,1.00
2023-06-30T12:46:28.096Z,0.80
2023-06-30T12:47:28.097Z,0.90
2023-06-30T12:48:28.056Z,1.20
2023-06-30T12:49:28.046Z,1.20
2023-06-30T12:50:28.043Z,0.90
2023-06-30T12:51:28.045Z,0.80
2023-06-30T12:52:28.010Z,1.10
2023-06-30T12:53:28.006Z,1.00
2023-06-30T12:54:28.016Z,1.10
2023-06-30T12:55:27.992Z,1.30
2023-06-30T12:56:27.966Z,0.90
2023-06-30T12:57:27.952Z,1.10
2023-06-30T12:58:28.602Z,0.80
2023-06-30T12:59:27.967Z,1.00
2023-06-30T13:00:27.922Z,0.70
2023-06-30T13:01:27.945Z,1.10
2023-06-30T13:02:27.920Z,1.20
2023-06-30T13:03:27.961Z,0.90
2023-06-30T13:04:28.543Z,0.80
2023-06-30T13:05:27.860Z,1.00
2023-06-30T13:06:27.850Z,1.00
2023-06-30T13:07:27.852Z,0.90
2023-06-30T13:08:27.828Z,1.10
2023-06-30T13:09:27.828Z,1.10
2023-06-30T13:10:29.135Z,1.20
2023-06-30T13:11:27.789Z,1.50
2023-06-30T13:12:27.785Z,1.20
2023-06-30T13:13:27.818Z,1.20
2023-06-30T13:14:27.777Z,1.20
2023-06-30T13:15:27.753Z,1.10
2023-06-30T13:16:27.780Z,1.00
2023-06-30T13:17:27.764Z,1.10
2023-06-30T13:18:27.729Z,1.00
2023-06-30T13:19:27.700Z,1.10
2023-06-30T13:20:27.707Z,1.20